sensor_id;sensor_type;location;lat;lon;timestamp;pressure;altitude;pressure_sealevel;temperature;humidity
30873;BME280;17579;42.690;2.586;2023-09-19T01:10:29;97353.81;;;22.08;41.71
30873;BME280;17579;42.690;2.586;2023-09-19T01:13:02;97357.56;;;22.07;41.38
30873;BME280;17579;42.690;2.586;2023-09-19T01:15:59;97355.75;;;22.01;42.07
30873;BME280;17579;42.690;2.586;2023-09-19T01:28:33;97360.03;;;22.09;41.15
30873;BME280;17579;42.690;2.586;2023-09-19T01:31:11;97353.63;;;22.10;41.11
30873;BME280;17579;42.690;2.586;2023-09-19T01:45:12;97350.13;;;22.03;41.05
30873;BME280;17579;42.690;2.586;2023-09-19T01:50:25;97354.06;;;22.00;41.10
30873;BME280;17579;42.690;2.586;2023-09-19T01:53:14;97350.34;;;22.01;40.52
30873;BME280;17579;42.690;2.586;2023-09-19T01:55:52;97347.03;;;21.99;40.75
30873;BME280;17579;42.690;2.586;2023-09-19T01:58:23;97355.75;;;22.01;40.48
30873;BME280;17579;42.690;2.586;2023-09-19T02:01:08;97351.75;;;22.04;40.13
30873;BME280;17579;42.690;2.586;2023-09-19T02:03:41;97347.44;;;22.03;40.19
30873;BME280;17579;42.690;2.586;2023-09-19T02:06:20;97360.06;;;22.02;39.57
30873;BME280;17579;42.690;2.586;2023-09-19T02:08:54;97353.03;;;22.01;39.89
30873;BME280;17579;42.690;2.586;2023-09-19T02:11:36;97351.97;;;22.02;39.56
30873;BME280;17579;42.690;2.586;2023-09-19T02:14:04;97349.06;;;22.04;39.44
30873;BME280;17579;42.690;2.586;2023-09-19T02:16:41;97362.97;;;22.01;39.78
30873;BME280;17579;42.690;2.586;2023-09-19T02:19:18;97362.16;;;22.00;39.39
30873;BME280;17579;42.690;2.586;2023-09-19T03:30:10;97353.88;;;21.43;40.38
30873;BME280;17579;42.690;2.586;2023-09-19T03:35:08;97353.28;;;21.41;40.12
30873;BME280;17579;42.690;2.586;2023-09-19T03:37:56;97354.72;;;21.37;40.39
30873;BME280;17579;42.690;2.586;2023-09-19T03:40:54;97349.34;;;21.37;40.59
30873;BME280;17579;42.690;2.586;2023-09-19T03:43:20;97349.13;;;21.45;39.80
30873;BME280;17579;42.690;2.586;2023-09-19T03:45:46;97353.06;;;21.42;40.21
30873;BME280;17579;42.690;2.586;2023-09-19T03:48:25;97349.75;;;21.40;39.90
30873;BME280;17579;42.690;2.586;2023-09-19T03:50:54;97351.41;;;21.41;40.30
30873;BME280;17579;42.690;2.586;2023-09-19T03:53:22;97347.69;;;21.42;39.96
30873;BME280;17579;42.690;2.586;2023-09-19T03:56:00;97344.56;;;21.39;40.07
30873;BME280;17579;42.690;2.586;2023-09-19T03:58:31;97344.13;;;21.42;40.15
30873;BME280;17579;42.690;2.586;2023-09-19T04:01:15;97357.22;;;21.38;39.87
30873;BME280;17579;42.690;2.586;2023-09-19T04:03:55;97355.53;;;21.37;40.54
30873;BME280;17579;42.690;2.586;2023-09-19T04:06:43;97352.44;;;21.40;40.26
30873;BME280;17579;42.690;2.586;2023-09-19T04:09:12;97353.88;;;21.43;40.22
30873;BME280;17579;42.690;2.586;2023-09-19T04:11:40;97351.19;;;21.43;40.34
30873;BME280;17579;42.690;2.586;2023-09-19T04:17:07;97352.00;;;21.50;40.20
30873;BME280;17579;42.690;2.586;2023-09-19T04:19:36;97352.19;;;21.49;39.90
30873;BME280;17579;42.690;2.586;2023-09-19T04:22:16;97354.09;;;21.41;39.94
30873;BME280;17579;42.690;2.586;2023-09-19T04:24:49;97360.72;;;21.39;40.08
30873;BME280;17579;42.690;2.586;2023-09-19T04:27:19;97355.75;;;21.36;40.21
30873;BME280;17579;42.690;2.586;2023-09-19T04:30:11;97357.00;;;21.33;40.14
30873;BME280;17579;42.690;2.586;2023-09-19T04:32:40;97352.47;;;21.27;40.22
30873;BME280;17579;42.690;2.586;2023-09-19T04:35:25;97356.22;;;21.19;40.71
30873;BME280;17579;42.690;2.586;2023-09-19T04:38:01;97357.69;;;21.15;40.83
30873;BME280;17579;42.690;2.586;2023-09-19T04:40:48;97360.38;;;21.08;41.03
30873;BME280;17579;42.690;2.586;2023-09-19T04:43:34;97355.00;;;21.08;40.64
30873;BME280;17579;42.690;2.586;2023-09-19T04:46:00;97358.94;;;21.06;40.82
30873;BME280;17579;42.690;2.586;2023-09-19T04:48:55;97357.50;;;21.03;40.73
30873;BME280;17579;42.690;2.586;2023-09-19T04:51:28;97352.53;;;21.00;40.46
30873;BME280;17579;42.690;2.586;2023-09-19T04:54:01;97366.59;;;20.96;40.98
30873;BME280;17579;42.690;2.586;2023-09-19T04:56:30;97364.53;;;20.91;40.98
30873;BME280;17579;42.690;2.586;2023-09-19T04:59:02;97368.88;;;20.85;41.08
30873;BME280;17579;42.690;2.586;2023-09-19T05:01:28;97370.97;;;20.83;40.90
30873;BME280;17579;42.690;2.586;2023-09-19T05:03:54;97374.69;;;20.82;41.54
30873;BME280;17579;42.690;2.586;2023-09-19T05:06:48;97376.34;;;20.70;41.52
30873;BME280;17579;42.690;2.586;2023-09-19T05:09:34;97381.09;;;20.68;41.58
30873;BME280;17579;42.690;2.586;2023-09-19T05:12:00;97386.03;;;20.57;41.91
30873;BME280;17579;42.690;2.586;2023-09-19T05:14:26;97382.31;;;20.52;42.00
30873;BME280;17579;42.690;2.586;2023-09-19T05:17:03;97384.16;;;20.45;42.30
30873;BME280;17579;42.690;2.586;2023-09-19T05:19:29;97386.84;;;20.45;42.60
30873;BME280;17579;42.690;2.586;2023-09-19T05:21:55;97387.06;;;20.43;42.56
30873;BME280;17579;42.690;2.586;2023-09-19T05:24:21;97391.56;;;20.42;42.89
30873;BME280;17579;42.690;2.586;2023-09-19T05:26:49;97385.59;;;20.40;42.80
30873;BME280;17579;42.690;2.586;2023-09-19T05:29:14;97386.41;;;20.41;42.67
30873;BME280;17579;42.690;2.586;2023-09-19T05:31:50;97380.63;;;20.37;42.80
30873;BME280;17579;42.690;2.586;2023-09-19T05:34:27;97392.22;;;20.45;42.95
30873;BME280;17579;42.690;2.586;2023-09-19T05:36:55;97396.13;;;20.42;43.01
30873;BME280;17579;42.690;2.586;2023-09-19T05:39:34;97395.50;;;20.40;42.93
30873;BME280;17579;42.690;2.586;2023-09-19T05:42:03;97400.03;;;20.39;43.23
30873;BME280;17579;42.690;2.586;2023-09-19T05:44:34;97405.41;;;20.39;43.05
30873;BME280;17579;42.690;2.586;2023-09-19T05:47:09;97409.97;;;20.39;43.28
30873;BME280;17579;42.690;2.586;2023-09-19T05:49:38;97412.03;;;20.43;43.65
30873;BME280;17579;42.690;2.586;2023-09-19T05:54:59;97432.50;;;20.51;42.90
30873;BME280;17579;42.690;2.586;2023-09-19T05:57:49;97430.25;;;20.55;43.17
30873;BME280;17579;42.690;2.586;2023-09-19T06:00:20;97443.47;;;20.56;42.75
30873;BME280;17579;42.690;2.586;2023-09-19T06:02:54;97437.28;;;20.56;42.95
30873;BME280;17579;42.690;2.586;2023-09-19T06:05:20;97435.81;;;20.60;43.40
30873;BME280;17579;42.690;2.586;2023-09-19T06:07:46;97445.13;;;20.64;43.11
30873;BME280;17579;42.690;2.586;2023-09-19T06:10:14;97439.56;;;20.66;42.95
30873;BME280;17579;42.690;2.586;2023-09-19T06:12:42;97440.03;;;20.76;43.34
30873;BME280;17579;42.690;2.586;2023-09-19T06:15:11;97430.69;;;20.79;43.55
30873;BME280;17579;42.690;2.586;2023-09-19T06:17:42;97430.31;;;20.95;43.04
30873;BME280;17579;42.690;2.586;2023-09-19T06:20:17;97437.13;;;21.04;42.80
30873;BME280;17579;42.690;2.586;2023-09-19T06:22:57;97423.88;;;21.09;42.62
30873;BME280;17579;42.690;2.586;2023-09-19T06:25:25;97427.59;;;21.08;42.85
30873;BME280;17579;42.690;2.586;2023-09-19T06:27:53;97432.78;;;21.17;43.05
30873;BME280;17579;42.690;2.586;2023-09-19T06:30:36;97418.72;;;21.08;42.64
30873;BME280;17579;42.690;2.586;2023-09-19T06:33:13;97416.63;;;21.10;43.00
30873;BME280;17579;42.690;2.586;2023-09-19T06:36:04;97412.72;;;21.13;42.84
30873;BME280;17579;42.690;2.586;2023-09-19T06:38:32;97414.16;;;21.08;43.05
30873;BME280;17579;42.690;2.586;2023-09-19T06:41:04;97422.66;;;21.05;42.87
30873;BME280;17579;42.690;2.586;2023-09-19T06:43:43;97423.88;;;21.03;42.94
30873;BME280;17579;42.690;2.586;2023-09-19T06:46:14;97418.72;;;21.01;42.91
30873;BME280;17579;42.690;2.586;2023-09-19T06:48:44;97418.50;;;21.03;43.25
30873;BME280;17579;42.690;2.586;2023-09-19T06:51:10;97427.00;;;21.06;43.49
30873;BME280;17579;42.690;2.586;2023-09-19T06:53:38;97416.47;;;21.05;43.43
30873;BME280;17579;42.690;2.586;2023-09-19T06:56:25;97418.53;;;20.96;43.28
30873;BME280;17579;42.690;2.586;2023-09-19T06:58:51;97416.03;;;21.01;43.94
30873;BME280;17579;42.690;2.586;2023-09-19T07:01:19;97416.66;;;21.03;43.98
30873;BME280;17579;42.690;2.586;2023-09-19T07:03:45;97421.00;;;21.04;44.29
30873;BME280;17579;42.690;2.586;2023-09-19T07:06:39;97411.91;;;21.12;44.27
30873;BME280;17579;42.690;2.586;2023-09-19T07:09:05;97416.44;;;21.25;44.49
30873;BME280;17579;42.690;2.586;2023-09-19T07:11:31;97412.06;;;21.31;44.00
30873;BME280;17579;42.690;2.586;2023-09-19T07:14:14;97416.41;;;21.38;43.99
30873;BME280;17579;42.690;2.586;2023-09-19T07:16:49;97414.72;;;21.51;43.72
30873;BME280;17579;42.690;2.586;2023-09-19T07:19:16;97413.69;;;21.65;43.58
30873;BME280;17579;42.690;2.586;2023-09-19T07:21:52;97421.50;;;21.73;43.39
30873;BME280;17579;42.690;2.586;2023-09-19T07:24:28;97419.16;;;21.90;43.69
30873;BME280;17579;42.690;2.586;2023-09-19T07:27:03;97417.09;;;21.92;43.48
30873;BME280;17579;42.690;2.586;2023-09-19T07:29:36;97419.94;;;22.04;43.65
30873;BME280;17579;42.690;2.586;2023-09-19T07:32:13;97424.03;;;22.13;43.41
30873;BME280;17579;42.690;2.586;2023-09-19T07:34:44;97424.38;;;22.24;43.24
30873;BME280;17579;42.690;2.586;2023-09-19T07:37:10;97425.81;;;22.33;43.11
30873;BME280;17579;42.690;2.586;2023-09-19T07:39:40;97433.88;;;22.40;42.85
30873;BME280;17579;42.690;2.586;2023-09-19T07:42:33;97434.66;;;22.47;42.75
30873;BME280;17579;42.690;2.586;2023-09-19T07:45:06;97440.75;;;22.36;42.43
30873;BME280;17579;42.690;2.586;2023-09-19T07:49:35;97439.09;;;22.35;43.01
30873;BME280;17579;42.690;2.586;2023-09-19T07:50:25;97438.84;;;22.43;42.67
30873;BME280;17579;42.690;2.586;2023-09-19T07:53:17;97445.81;;;22.51;42.71
30873;BME280;17579;42.690;2.586;2023-09-19T07:55:45;97440.78;;;22.61;42.62
30873;BME280;17579;42.690;2.586;2023-09-19T07:58:21;97450.31;;;22.63;42.81
30873;BME280;17579;42.690;2.586;2023-09-19T08:00:55;97448.84;;;22.67;42.48
30873;BME280;17579;42.690;2.586;2023-09-19T08:03:41;97453.00;;;22.63;43.16
30873;BME280;17579;42.690;2.586;2023-09-19T08:06:22;97442.63;;;22.67;43.03
30873;BME280;17579;42.690;2.586;2023-09-19T08:08:59;97440.50;;;22.76;42.76
30873;BME280;17579;42.690;2.586;2023-09-19T08:11:29;97443.75;;;22.84;42.51
30873;BME280;17579;42.690;2.586;2023-09-19T08:13:58;97439.72;;;22.94;42.37
30873;BME280;17579;42.690;2.586;2023-09-19T08:16:24;97442.72;;;23.04;42.29
30873;BME280;17579;42.690;2.586;2023-09-19T08:18:53;97440.88;;;23.05;41.38
30873;BME280;17579;42.690;2.586;2023-09-19T08:21:27;97451.22;;;23.14;41.70
30873;BME280;17579;42.690;2.586;2023-09-19T08:23:55;97445.59;;;23.34;42.02
30873;BME280;17579;42.690;2.586;2023-09-19T08:26:42;97440.91;;;23.48;42.21
30873;BME280;17579;42.690;2.586;2023-09-19T08:29:12;97440.03;;;23.73;41.25
30873;BME280;17579;42.690;2.586;2023-09-19T08:31:38;97439.28;;;23.84;41.59
30873;BME280;17579;42.690;2.586;2023-09-19T08:34:06;97437.44;;;24.03;41.25
30873;BME280;17579;42.690;2.586;2023-09-19T08:39:27;97431.31;;;24.27;41.15
30873;BME280;17579;42.690;2.586;2023-09-19T08:42:05;97432.16;;;24.39;40.64
30873;BME280;17579;42.690;2.586;2023-09-19T08:44:36;97431.69;;;24.42;40.78
30873;BME280;17579;42.690;2.586;2023-09-19T08:47:10;97429.72;;;24.49;40.44
30873;BME280;17579;42.690;2.586;2023-09-19T08:52:22;97423.31;;;24.62;40.33
30873;BME280;17579;42.690;2.586;2023-09-19T08:54:59;97425.13;;;24.68;40.15
30873;BME280;17579;42.690;2.586;2023-09-19T08:57:36;97426.09;;;24.74;39.50
30873;BME280;17579;42.690;2.586;2023-09-19T09:00:10;97430.41;;;24.75;39.80
30873;BME280;17579;42.690;2.586;2023-09-19T09:02:38;97429.50;;;24.81;39.63
30873;BME280;17579;42.690;2.586;2023-09-19T09:05:10;97425.16;;;24.92;39.92
30873;BME280;17579;42.690;2.586;2023-09-19T09:07:40;97421.66;;;25.03;39.58
30873;BME280;17579;42.690;2.586;2023-09-19T09:10:15;97427.66;;;25.17;39.56
30873;BME280;17579;42.690;2.586;2023-09-19T09:12:41;97428.13;;;25.26;39.22
30873;BME280;17579;42.690;2.586;2023-09-19T09:15:19;97426.16;;;25.33;39.30
30873;BME280;17579;42.690;2.586;2023-09-19T09:17:51;97428.28;;;25.43;39.20
30873;BME280;17579;42.690;2.586;2023-09-19T09:23:27;97431.88;;;25.72;38.92
30873;BME280;17579;42.690;2.586;2023-09-19T09:26:03;97433.38;;;25.80;39.42
30873;BME280;17579;42.690;2.586;2023-09-19T09:28:46;97433.63;;;25.90;38.84
30873;BME280;17579;42.690;2.586;2023-09-19T09:35:37;97444.41;;;26.14;38.13
30873;BME280;17579;42.690;2.586;2023-09-19T09:36:49;97437.78;;;26.22;37.43
30873;BME280;17579;42.690;2.586;2023-09-19T09:39:33;97440.03;;;26.25;38.20
30873;BME280;17579;42.690;2.586;2023-09-19T09:42:40;97431.41;;;26.28;37.81
30873;BME280;17579;42.690;2.586;2023-09-19T09:45:38;97422.34;;;26.22;37.81
30873;BME280;17579;42.690;2.586;2023-09-19T09:48:04;97418.44;;;26.30;37.78
30873;BME280;17579;42.690;2.586;2023-09-19T09:50:48;97427.00;;;26.39;38.41
30873;BME280;17579;42.690;2.586;2023-09-19T09:53:19;97431.03;;;26.53;37.68
30873;BME280;17579;42.690;2.586;2023-09-19T09:56:31;97428.16;;;26.43;37.86
30873;BME280;17579;42.690;2.586;2023-09-19T09:59:13;97428.06;;;26.38;37.98
30873;BME280;17579;42.690;2.586;2023-09-19T10:01:47;97426.97;;;26.51;37.78
30873;BME280;17579;42.690;2.586;2023-09-19T10:06:59;97434.00;;;26.52;37.07
30873;BME280;17579;42.690;2.586;2023-09-19T10:10:13;97434.69;;;26.59;36.87
30873;BME280;17579;42.690;2.586;2023-09-19T10:12:55;97435.53;;;26.76;36.51
30873;BME280;17579;42.690;2.586;2023-09-19T10:15:50;97430.38;;;26.75;36.93
30873;BME280;17579;42.690;2.586;2023-09-19T10:18:32;97426.03;;;26.91;36.40
30873;BME280;17579;42.690;2.586;2023-09-19T10:21:25;97424.06;;;27.03;36.33
30873;BME280;17579;42.690;2.586;2023-09-19T10:23:58;97419.44;;;27.04;36.19
30873;BME280;17579;42.690;2.586;2023-09-19T10:26:27;97421.19;;;27.10;36.12
30873;BME280;17579;42.690;2.586;2023-09-19T10:28:57;97424.88;;;27.21;35.93
30873;BME280;17579;42.690;2.586;2023-09-19T10:31:36;97416.56;;;27.27;36.09
30873;BME280;17579;42.690;2.586;2023-09-19T10:34:18;97412.84;;;27.34;36.06
30873;BME280;17579;42.690;2.586;2023-09-19T10:36:47;97408.03;;;27.36;35.49
30873;BME280;17579;42.690;2.586;2023-09-19T10:39:25;97412.84;;;27.34;35.55
30873;BME280;17579;42.690;2.586;2023-09-19T10:42:02;97406.50;;;27.28;36.12
30873;BME280;17579;42.690;2.586;2023-09-19T10:44:51;97409.72;;;27.25;35.80
30873;BME280;17579;42.690;2.586;2023-09-19T10:47:40;97392.69;;;27.29;35.21
30873;BME280;17579;42.690;2.586;2023-09-19T10:50:07;97408.41;;;27.27;35.00
30873;BME280;17579;42.690;2.586;2023-09-19T10:52:40;97402.47;;;27.30;35.77
30873;BME280;17579;42.690;2.586;2023-09-19T10:55:16;97404.22;;;27.37;35.48
30873;BME280;17579;42.690;2.586;2023-09-19T10:57:44;97400.00;;;27.46;36.17
30873;BME280;17579;42.690;2.586;2023-09-19T11:00:19;97385.81;;;27.61;36.17
30873;BME280;17579;42.690;2.586;2023-09-19T11:11:45;97385.09;;;27.93;35.08
30873;BME280;17579;42.690;2.586;2023-09-19T11:11:57;97386.19;;;27.70;36.18
30873;BME280;17579;42.690;2.586;2023-09-19T11:14:42;97382.22;;;27.99;35.38
30873;BME280;17579;42.690;2.586;2023-09-19T11:17:48;97382.66;;;28.13;35.09
30873;BME280;17579;42.690;2.586;2023-09-19T12:30:47;97304.38;;;29.23;32.59
30873;BME280;17579;42.690;2.586;2023-09-19T12:39:06;97298.59;;;29.14;32.43
30873;BME280;17579;42.690;2.586;2023-09-19T12:41:34;97297.16;;;29.01;32.17
30873;BME280;17579;42.690;2.586;2023-09-19T12:44:04;97297.59;;;28.83;32.56
30873;BME280;17579;42.690;2.586;2023-09-19T12:46:54;97296.13;;;28.65;32.81
30873;BME280;17579;42.690;2.586;2023-09-19T12:49:34;97306.72;;;28.66;32.98
30873;BME280;17579;42.690;2.586;2023-09-19T12:52:10;97302.53;;;28.91;33.05
30873;BME280;17579;42.690;2.586;2023-09-19T12:54:40;97292.28;;;29.09;32.91
30873;BME280;17579;42.690;2.586;2023-09-19T12:57:22;97298.41;;;29.26;32.39
30873;BME280;17579;42.690;2.586;2023-09-19T13:00:10;97298.22;;;29.43;33.29
30873;BME280;17579;42.690;2.586;2023-09-19T13:08:18;97290.34;;;29.52;32.05
30873;BME280;17579;42.690;2.586;2023-09-19T13:13:47;97286.59;;;29.10;32.21
30873;BME280;17579;42.690;2.586;2023-09-19T13:16:24;97289.16;;;28.84;32.68
30873;BME280;17579;42.690;2.586;2023-09-19T13:18:53;97285.16;;;28.97;32.64
30873;BME280;17579;42.690;2.586;2023-09-19T13:21:29;97272.59;;;28.96;32.03
30873;BME280;17579;42.690;2.586;2023-09-19T13:24:20;97274.94;;;28.77;32.62
30873;BME280;17579;42.690;2.586;2023-09-19T13:26:52;97281.84;;;28.90;33.08
30873;BME280;17579;42.690;2.586;2023-09-19T13:29:17;97272.06;;;29.47;32.46
30873;BME280;17579;42.690;2.586;2023-09-19T13:32:02;97268.66;;;29.83;31.36
30873;BME280;17579;42.690;2.586;2023-09-19T13:34:30;97260.81;;;30.48;30.59
30873;BME280;17579;42.690;2.586;2023-09-19T13:36:57;97264.03;;;31.07;29.96
30873;BME280;17579;42.690;2.586;2023-09-19T13:39:39;97264.88;;;31.68;29.84
30873;BME280;17579;42.690;2.586;2023-09-19T13:42:16;97254.72;;;32.18;29.15
30873;BME280;17579;42.690;2.586;2023-09-19T13:44:48;97253.97;;;32.07;29.21
30873;BME280;17579;42.690;2.586;2023-09-19T13:47:34;97258.09;;;32.05;28.66
30873;BME280;17579;42.690;2.586;2023-09-19T13:50:13;97261.66;;;32.05;28.81
30873;BME280;17579;42.690;2.586;2023-09-19T13:52:49;97257.03;;;32.40;28.27
30873;BME280;17579;42.690;2.586;2023-09-19T13:55:19;97250.88;;;32.54;27.62
30873;BME280;17579;42.690;2.586;2023-09-19T13:58:06;97253.63;;;32.19;27.72
30873;BME280;17579;42.690;2.586;2023-09-19T14:00:47;97244.69;;;31.64;28.44
30873;BME280;17579;42.690;2.586;2023-09-19T14:05:59;97242.53;;;32.05;28.38
30873;BME280;17579;42.690;2.586;2023-09-19T14:08:28;97237.75;;;31.82;27.79
30873;BME280;17579;42.690;2.586;2023-09-19T14:11:07;97227.22;;;31.59;28.46
30873;BME280;17579;42.690;2.586;2023-09-19T14:13:36;97231.81;;;30.93;28.96
30873;BME280;17579;42.690;2.586;2023-09-19T14:16:08;97231.34;;;30.24;29.39
30873;BME280;17579;42.690;2.586;2023-09-19T14:18:34;97232.63;;;29.65;30.08
30873;BME280;17579;42.690;2.586;2023-09-19T14:21:37;97238.13;;;29.12;30.80
30873;BME280;17579;42.690;2.586;2023-09-19T14:24:04;97235.28;;;28.92;31.12
30873;BME280;17579;42.690;2.586;2023-09-19T14:26:37;97225.09;;;28.66;31.46
30873;BME280;17579;42.690;2.586;2023-09-19T14:29:07;97217.47;;;28.63;32.07
30873;BME280;17579;42.690;2.586;2023-09-19T14:31:38;97222.97;;;28.74;31.89
30873;BME280;17579;42.690;2.586;2023-09-19T14:34:13;97216.19;;;28.76;31.55
30873;BME280;17579;42.690;2.586;2023-09-19T14:36:41;97205.78;;;28.68;32.21
30873;BME280;17579;42.690;2.586;2023-09-19T14:39:18;97221.69;;;28.49;31.77
30873;BME280;17579;42.690;2.586;2023-09-19T14:42:07;97218.63;;;28.40;32.48
30873;BME280;17579;42.690;2.586;2023-09-19T14:44:54;97212.09;;;28.36;32.34
30873;BME280;17579;42.690;2.586;2023-09-19T14:47:34;97201.75;;;28.38;32.83
30873;BME280;17579;42.690;2.586;2023-09-19T14:50:09;97197.69;;;28.41;32.56
30873;BME280;17579;42.690;2.586;2023-09-19T14:52:40;97184.09;;;28.41;32.39
30873;BME280;17579;42.690;2.586;2023-09-19T14:55:19;97189.19;;;28.32;32.86
30873;BME280;17579;42.690;2.586;2023-09-19T14:57:55;97182.91;;;28.31;32.85
30873;BME280;17579;42.690;2.586;2023-09-19T15:00:24;97186.69;;;28.25;34.85
30873;BME280;17579;42.690;2.586;2023-09-19T15:02:55;97189.63;;;28.18;34.66
30873;BME280;17579;42.690;2.586;2023-09-19T15:05:21;97190.94;;;28.11;34.02
30873;BME280;17579;42.690;2.586;2023-09-19T15:07:48;97182.97;;;27.99;34.69
30873;BME280;17579;42.690;2.586;2023-09-19T15:10:13;97187.97;;;27.85;35.71
30873;BME280;17579;42.690;2.586;2023-09-19T15:12:39;97188.06;;;27.63;36.79
30873;BME280;17579;42.690;2.586;2023-09-19T15:15:25;97174.50;;;27.41;36.96
30873;BME280;17579;42.690;2.586;2023-09-19T15:17:51;97181.19;;;27.33;38.44
30873;BME280;17579;42.690;2.586;2023-09-19T15:20:19;97181.88;;;27.23;38.82
30873;BME280;17579;42.690;2.586;2023-09-19T15:25:36;97187.47;;;27.11;39.45
30873;BME280;17579;42.690;2.586;2023-09-19T15:28:05;97195.34;;;27.13;39.21
30873;BME280;17579;42.690;2.586;2023-09-19T15:30:40;97196.38;;;27.07;39.21
30873;BME280;17579;42.690;2.586;2023-09-19T15:33:35;97197.56;;;26.94;38.96
30873;BME280;17579;42.690;2.586;2023-09-19T15:36:13;97196.34;;;26.85;39.51
30873;BME280;17579;42.690;2.586;2023-09-19T15:41:20;97190.25;;;26.72;40.15
30873;BME280;17579;42.690;2.586;2023-09-19T15:43:46;97192.63;;;26.69;40.24
30873;BME280;17579;42.690;2.586;2023-09-19T15:46:12;97191.13;;;26.61;40.58
30873;BME280;17579;42.690;2.586;2023-09-19T15:48:40;97184.06;;;26.60;41.14
30873;BME280;17579;42.690;2.586;2023-09-19T15:51:06;97183.56;;;26.63;40.93
30873;BME280;17579;42.690;2.586;2023-09-19T15:53:48;97183.97;;;26.55;40.48
30873;BME280;17579;42.690;2.586;2023-09-19T15:56:17;97186.88;;;26.48;40.57
30873;BME280;17579;42.690;2.586;2023-09-19T15:58:50;97192.56;;;26.47;41.08
30873;BME280;17579;42.690;2.586;2023-09-19T16:01:39;97194.03;;;26.37;40.97
30873;BME280;17579;42.690;2.586;2023-09-19T16:04:06;97193.53;;;26.40;41.22
30873;BME280;17579;42.690;2.586;2023-09-19T16:07:27;97190.16;;;26.33;41.51
30873;BME280;17579;42.690;2.586;2023-09-19T16:09:46;97194.69;;;26.27;41.61
30873;BME280;17579;42.690;2.586;2023-09-19T16:12:12;97183.44;;;26.19;42.38
30873;BME280;17579;42.690;2.586;2023-09-19T16:14:42;97197.19;;;26.12;41.89
30873;BME280;17579;42.690;2.586;2023-09-19T16:17:08;97192.16;;;26.04;41.76
30873;BME280;17579;42.690;2.586;2023-09-19T16:19:36;97197.16;;;25.95;41.84
30873;BME280;17579;42.690;2.586;2023-09-19T16:22:10;97198.34;;;25.87;41.64
30873;BME280;17579;42.690;2.586;2023-09-19T16:24:37;97206.72;;;25.86;41.78
30873;BME280;17579;42.690;2.586;2023-09-19T16:27:11;97202.06;;;25.81;42.09
30873;BME280;17579;42.690;2.586;2023-09-19T16:30:19;97212.31;;;25.79;42.20
30873;BME280;17579;42.690;2.586;2023-09-19T16:32:36;97211.72;;;25.77;42.32
30873;BME280;17579;42.690;2.586;2023-09-19T16:35:16;97211.56;;;25.67;42.51
30873;BME280;17579;42.690;2.586;2023-09-19T16:37:50;97203.66;;;25.65;42.27
30873;BME280;17579;42.690;2.586;2023-09-19T16:40:27;97212.78;;;25.59;42.39
30873;BME280;17579;42.690;2.586;2023-09-19T16:42:58;97204.31;;;25.55;42.76
30873;BME280;17579;42.690;2.586;2023-09-19T16:45:39;97209.03;;;25.48;42.97
30873;BME280;17579;42.690;2.586;2023-09-19T16:48:12;97210.34;;;25.46;42.75
30873;BME280;17579;42.690;2.586;2023-09-19T16:53:29;97217.34;;;25.41;42.86
30873;BME280;17579;42.690;2.586;2023-09-19T16:58:27;97223.44;;;25.37;43.11
30873;BME280;17579;42.690;2.586;2023-09-19T17:01:10;97214.75;;;25.35;43.21
30873;BME280;17579;42.690;2.586;2023-09-19T17:03:47;97205.56;;;25.36;43.09
30873;BME280;17579;42.690;2.586;2023-09-19T17:06:19;97209.59;;;25.33;42.87
30873;BME280;17579;42.690;2.586;2023-09-19T17:08:56;97203.56;;;25.31;43.17
30873;BME280;17579;42.690;2.586;2023-09-19T17:11:35;97198.63;;;25.28;43.49
30873;BME280;17579;42.690;2.586;2023-09-19T17:14:09;97195.72;;;25.18;43.26
30873;BME280;17579;42.690;2.586;2023-09-19T17:16:34;97189.25;;;25.19;43.75
30873;BME280;17579;42.690;2.586;2023-09-19T17:19:13;97189.00;;;25.20;44.30
30873;BME280;17579;42.690;2.586;2023-09-19T17:21:59;97195.22;;;25.21;44.06
30873;BME280;17579;42.690;2.586;2023-09-19T17:24:25;97191.34;;;25.17;44.09
30873;BME280;17579;42.690;2.586;2023-09-19T17:26:53;97193.97;;;25.12;44.19
30873;BME280;17579;42.690;2.586;2023-09-19T17:29:19;97192.81;;;25.07;44.87
30873;BME280;17579;42.690;2.586;2023-09-19T17:31:45;97201.66;;;25.03;44.98
30873;BME280;17579;42.690;2.586;2023-09-19T17:34:13;97209.66;;;24.98;44.94
30873;BME280;17579;42.690;2.586;2023-09-19T17:36:49;97198.50;;;24.94;44.48
30873;BME280;17579;42.690;2.586;2023-09-19T17:39:23;97194.03;;;24.88;44.54
30873;BME280;17579;42.690;2.586;2023-09-19T17:42:12;97194.16;;;24.81;44.42
30873;BME280;17579;42.690;2.586;2023-09-19T17:44:50;97185.56;;;24.84;44.80
30873;BME280;17579;42.690;2.586;2023-09-19T17:50:10;97181.09;;;24.78;45.45
30873;BME280;17579;42.690;2.586;2023-09-19T17:52:50;97184.28;;;24.75;45.62
30873;BME280;17579;42.690;2.586;2023-09-19T17:55:28;97186.88;;;24.70;45.42
30873;BME280;17579;42.690;2.586;2023-09-19T17:57:56;97188.75;;;24.69;46.67
30873;BME280;17579;42.690;2.586;2023-09-19T18:00:37;97186.69;;;24.60;45.79
30873;BME280;17579;42.690;2.586;2023-09-19T18:03:25;97186.16;;;24.51;45.79
30873;BME280;17579;42.690;2.586;2023-09-19T18:05:51;97194.16;;;24.58;46.82
30873;BME280;17579;42.690;2.586;2023-09-19T18:08:19;97201.22;;;24.59;46.99
30873;BME280;17579;42.690;2.586;2023-09-19T18:11:12;97198.63;;;24.52;46.14
30873;BME280;17579;42.690;2.586;2023-09-19T18:13:41;97206.84;;;24.57;46.57
30873;BME280;17579;42.690;2.586;2023-09-19T18:16:14;97195.09;;;24.51;46.80
30873;BME280;17579;42.690;2.586;2023-09-19T18:18:59;97200.75;;;24.50;46.81
30873;BME280;17579;42.690;2.586;2023-09-19T18:21:25;97199.34;;;24.47;47.21
30873;BME280;17579;42.690;2.586;2023-09-19T18:24:00;97200.06;;;24.43;47.27
30873;BME280;17579;42.690;2.586;2023-09-19T18:26:33;97194.88;;;24.41;47.34
30873;BME280;17579;42.690;2.586;2023-09-19T18:28:59;97192.28;;;24.46;47.38
30873;BME280;17579;42.690;2.586;2023-09-19T18:31:41;97188.41;;;24.42;46.73
30873;BME280;17579;42.690;2.586;2023-09-19T18:37:01;97189.81;;;24.45;47.26